createdAt,value
2018-11-21T00:00:18.572Z,999.82
2018-11-21T00:01:33.656Z,999.79
2018-11-21T00:02:47.687Z,999.71
2018-11-21T00:04:01.878Z,999.58
2018-11-21T00:05:16.073Z,999.57
2018-11-21T00:06:30.522Z,999.47
2018-11-21T00:08:00.405Z,999.38
2018-11-21T00:09:15.062Z,999.38
2018-11-21T00:10:29.745Z,999.37
2018-11-21T00:11:44.817Z,999.46
2018-11-21T00:12:59.387Z,999.54
2018-11-21T00:14:13.865Z,999.53
2018-11-21T00:15:28.670Z,999.57
2018-11-21T00:18:14.453Z,999.63
2018-11-21T00:19:28.859Z,999.69
2018-11-21T00:20:43.306Z,999.67
2018-11-21T00:21:57.788Z,999.77
2018-11-21T00:23:12.782Z,999.81
2018-11-21T00:24:27.781Z,999.78
2018-11-21T00:25:42.487Z,999.83
2018-11-21T00:26:59.013Z,999.84
2018-11-21T00:28:13.183Z,999.89
2018-11-21T00:29:27.751Z,999.9
2018-11-21T00:30:42.019Z,999.89
2018-11-21T00:31:56.446Z,999.96
2018-11-21T00:33:10.103Z,999.93
2018-11-21T00:34:24.525Z,999.95
2018-11-21T00:35:39.038Z,999.98
2018-11-21T00:36:53.262Z,1000
2018-11-21T00:38:08.043Z,1000
2018-11-21T00:39:22.226Z,1000.08
2018-11-21T00:40:36.904Z,1000.1
2018-11-21T00:41:51.641Z,1000.09
2018-11-21T00:43:21.360Z,1000.14
2018-11-21T00:44:36.300Z,1000.14
2018-11-21T00:45:50.985Z,1000.11
2018-11-21T00:47:06.486Z,1000.1
2018-11-21T00:48:21.735Z,1000.15
2018-11-21T00:49:35.998Z,1000.09
2018-11-21T00:50:50.451Z,1000.11
2018-11-21T00:52:04.407Z,1000.11
2018-11-21T00:53:19.147Z,1000.09
2018-11-21T00:54:33.645Z,1000.15
2018-11-21T00:55:47.592Z,1000.14
2018-11-21T00:57:02.074Z,1000.09
2018-11-21T00:58:16.494Z,1000.12
2018-11-21T00:59:31.001Z,1000.08
2018-11-21T01:00:45.284Z,1000.13
2018-11-21T01:01:59.445Z,1000.07
2018-11-21T01:03:13.470Z,1000.14
2018-11-21T01:04:27.652Z,1000.09
2018-11-21T01:05:42.192Z,1000.16
2018-11-21T01:06:56.720Z,1000.09
2018-11-21T01:08:11.419Z,1000.11
2018-11-21T01:09:25.609Z,1000.11
2018-11-21T01:10:40.035Z,1000.08
2018-11-21T01:11:54.845Z,1000.12
2018-11-21T01:13:09.364Z,1000.07
2018-11-21T01:14:24.266Z,1000.08
2018-11-21T01:15:39.276Z,1000.2
2018-11-21T01:16:53.475Z,1000.23
2018-11-21T01:18:07.532Z,1000.27
2018-11-21T01:19:22.604Z,1000.28
2018-11-21T01:20:37.094Z,1000.32
2018-11-21T01:21:52.017Z,1000.31
2018-11-21T01:23:06.269Z,1000.41
2018-11-21T01:24:35.697Z,1000.49
2018-11-21T01:25:50.482Z,1000.47
2018-11-21T01:27:22.418Z,1000.48
2018-11-21T01:28:38.774Z,1000.45
2018-11-21T01:29:53.433Z,1000.44
2018-11-21T01:31:08.432Z,1000.42
2018-11-21T01:32:22.885Z,1000.42
2018-11-21T01:33:36.939Z,1000.39
2018-11-21T01:34:51.772Z,1000.5
2018-11-21T01:36:18.923Z,1000.49
2018-11-21T01:37:34.051Z,1000.5
2018-11-21T01:38:48.297Z,1000.53
2018-11-21T01:40:03.133Z,1000.52
2018-11-21T01:41:17.588Z,1000.52
2018-11-21T01:42:32.039Z,1000.6
2018-11-21T01:43:47.338Z,1000.61
2018-11-21T01:45:01.070Z,1000.62
2018-11-21T01:46:15.237Z,1000.6
2018-11-21T01:47:29.410Z,1000.66
2018-11-21T01:48:43.579Z,1000.68
2018-11-21T01:49:58.574Z,1000.72
2018-11-21T01:51:13.067Z,1000.71
2018-11-21T01:52:27.798Z,1000.79
2018-11-21T01:53:42.468Z,1000.67
2018-11-21T01:54:57.118Z,1000.76
2018-11-21T01:56:11.855Z,1000.64
2018-11-21T01:57:40.886Z,1000.67
2018-11-21T01:58:55.353Z,1000.72
2018-11-21T02:00:10.308Z,1000.68
2018-11-21T02:01:24.996Z,1000.71
2018-11-21T02:02:40.262Z,1000.73
2018-11-21T02:03:54.515Z,1000.76
2018-11-21T02:05:08.832Z,1000.76
2018-11-21T02:06:23.013Z,1000.72
2018-11-21T02:07:37.277Z,1000.79
2018-11-21T02:08:51.796Z,1000.75
2018-11-21T02:10:06.253Z,1000.83
2018-11-21T02:11:20.198Z,1000.87
2018-11-21T02:12:35.034Z,1000.89
2018-11-21T02:13:49.791Z,1000.89
2018-11-21T02:15:04.830Z,1000.87
2018-11-21T02:16:19.032Z,1000.91
2018-11-21T02:17:33.201Z,1000.86
2018-11-21T02:18:47.655Z,1000.91
2018-11-21T02:20:01.806Z,1000.88
2018-11-21T02:21:16.433Z,1000.88
2018-11-21T02:22:31.121Z,1000.91
2018-11-21T02:23:45.314Z,1000.91
2018-11-21T02:24:59.871Z,1000.9
2018-11-21T02:26:14.567Z,1000.98
2018-11-21T02:27:29.515Z,1001.01
2018-11-21T02:28:44.211Z,1000.98
2018-11-21T02:29:58.873Z,1000.99
2018-11-21T02:31:12.831Z,1001.09
2018-11-21T02:32:27.817Z,1001.01
2018-11-21T02:33:42.668Z,1001.05
2018-11-21T02:34:57.082Z,1001.1
2018-11-21T02:36:12.202Z,1001.08
2018-11-21T02:37:26.133Z,1001.06
2018-11-21T02:38:40.742Z,1001.08
2018-11-21T02:39:55.361Z,1001.12
2018-11-21T02:41:10.061Z,1001.1
2018-11-21T02:42:24.298Z,1001.12
2018-11-21T02:43:38.986Z,1001.06
2018-11-21T02:44:53.585Z,1001.12
2018-11-21T02:46:08.581Z,1001.06
2018-11-21T02:47:23.248Z,1001.07
2018-11-21T02:48:37.749Z,1001.11
2018-11-21T02:49:51.721Z,1001.08
2018-11-21T02:51:05.654Z,1001.1
2018-11-21T02:52:19.896Z,1001.03
2018-11-21T02:53:34.403Z,1001.02
2018-11-21T02:54:48.880Z,1001.01
2018-11-21T02:56:03.792Z,1000.97
2018-11-21T02:57:17.767Z,1001
2018-11-21T02:58:33.187Z,1000.92
2018-11-21T02:59:47.777Z,1000.93
2018-11-21T03:01:02.265Z,1000.93
2018-11-21T03:02:17.236Z,1000.94
2018-11-21T03:03:31.882Z,1000.99
2018-11-21T03:04:47.125Z,1000.99
2018-11-21T03:06:01.271Z,1001.01
2018-11-21T03:07:16.198Z,1001.01
2018-11-21T03:08:30.988Z,1001.05
2018-11-21T03:09:45.167Z,1001.03
2018-11-21T03:11:00.631Z,1001.1
2018-11-21T03:12:14.552Z,1001.05
2018-11-21T03:13:29.392Z,1001.05
2018-11-21T03:14:43.927Z,1001.05
2018-11-21T03:15:58.358Z,1001.07
2018-11-21T03:17:13.129Z,1001.08
2018-11-21T03:18:27.861Z,1001.11
2018-11-21T03:19:42.240Z,1001.12
2018-11-21T03:20:56.654Z,1001.15
2018-11-21T03:22:11.317Z,1001.17
2018-11-21T03:23:26.285Z,1001.28
2018-11-21T03:24:40.694Z,1001.25
2018-11-21T03:26:09.574Z,1001.29
2018-11-21T03:27:23.843Z,1001.34
2018-11-21T03:28:38.412Z,1001.36
2018-11-21T03:29:52.707Z,1001.36
2018-11-21T03:31:07.184Z,1001.4
2018-11-21T03:32:21.861Z,1001.41
2018-11-21T03:33:36.860Z,1001.43
2018-11-21T03:35:04.895Z,1001.48
2018-11-21T03:36:19.120Z,1001.54
2018-11-21T03:37:33.892Z,1001.52
2018-11-21T03:38:48.326Z,1001.56
2018-11-21T03:40:02.279Z,1001.61
2018-11-21T03:41:17.015Z,1001.66
2018-11-21T03:42:31.680Z,1001.72
2018-11-21T03:43:46.403Z,1001.77
2018-11-21T03:46:31.454Z,1001.83
2018-11-21T03:47:45.469Z,1001.82
2018-11-21T03:49:00.101Z,1001.82
2018-11-21T03:50:15.916Z,1001.86
2018-11-21T03:51:30.184Z,1001.82
2018-11-21T03:52:44.922Z,1001.81
2018-11-21T03:53:59.344Z,1001.85
2018-11-21T03:55:13.279Z,1001.82
2018-11-21T03:56:27.787Z,1001.82
2018-11-21T03:57:42.212Z,1001.81
2018-11-21T03:58:56.949Z,1001.76
2018-11-21T04:00:11.713Z,1001.72
2018-11-21T04:01:26.138Z,1001.63
2018-11-21T04:02:40.815Z,1001.6
2018-11-21T04:03:55.248Z,1001.66
2018-11-21T04:05:09.757Z,1001.65
2018-11-21T04:06:24.071Z,1001.71
2018-11-21T04:07:38.600Z,1001.67
2018-11-21T04:08:52.791Z,1001.73
2018-11-21T04:10:06.485Z,1001.77
2018-11-21T04:11:21.189Z,1001.81
2018-11-21T04:12:36.097Z,1001.76
2018-11-21T04:13:50.447Z,1001.72
2018-11-21T04:15:05.510Z,1001.76
2018-11-21T04:16:20.470Z,1001.69
2018-11-21T04:17:34.963Z,1001.72
2018-11-21T04:18:49.662Z,1001.73
2018-11-21T04:20:03.790Z,1001.75
2018-11-21T04:21:18.218Z,1001.7
2018-11-21T04:22:32.738Z,1001.8
2018-11-21T04:23:46.981Z,1001.84
2018-11-21T04:25:01.170Z,1001.88
2018-11-21T04:26:14.822Z,1001.9
2018-11-21T04:27:29.524Z,1001.91
2018-11-21T04:28:44.403Z,1001.9
2018-11-21T04:29:59.008Z,1001.89
2018-11-21T04:31:12.964Z,1001.95
2018-11-21T04:32:26.997Z,1001.96
2018-11-21T04:33:41.348Z,1001.96
2018-11-21T04:34:56.063Z,1001.94
2018-11-21T04:36:10.311Z,1002
2018-11-21T04:37:24.688Z,1002.05
2018-11-21T04:38:41.400Z,1002.03
2018-11-21T04:39:56.178Z,1002.02
2018-11-21T04:41:10.775Z,1002.05
2018-11-21T04:42:25.300Z,1002.03
2018-11-21T04:43:39.236Z,1002.02
2018-11-21T04:44:53.396Z,1002.02
2018-11-21T04:46:07.556Z,1002.04
2018-11-21T04:47:22.191Z,1002.04
2018-11-21T04:48:37.048Z,1001.99
2018-11-21T04:49:52.540Z,1001.95
2018-11-21T04:51:06.383Z,1001.95
2018-11-21T04:52:20.917Z,1001.95
2018-11-21T04:53:34.840Z,1002.04
2018-11-21T04:54:49.596Z,1001.98
2018-11-21T04:56:03.960Z,1002.1
2018-11-21T04:57:33.653Z,1001.93
2018-11-21T04:58:48.345Z,1001.88
2018-11-21T05:00:03.062Z,1001.95
2018-11-21T05:01:17.390Z,1001.91
2018-11-21T05:02:32.966Z,1001.93
2018-11-21T05:03:48.070Z,1001.89
2018-11-21T05:05:17.083Z,1002
2018-11-21T05:06:32.390Z,1002.02
2018-11-21T05:07:47.552Z,1002.09
2018-11-21T05:09:01.688Z,1002.1
2018-11-21T05:10:16.601Z,1002.12
2018-11-21T05:11:30.982Z,1002.1
2018-11-21T05:12:46.654Z,1002.12
2018-11-21T05:15:30.205Z,1002.14
2018-11-21T05:16:45.116Z,1002.18
2018-11-21T05:17:59.923Z,1002.18
2018-11-21T05:19:15.168Z,1002.19
2018-11-21T05:20:29.313Z,1002.26
2018-11-21T05:21:43.098Z,1002.28
2018-11-21T05:22:57.620Z,1002.29
2018-11-21T05:24:14.936Z,1002.32
2018-11-21T05:25:29.645Z,1002.32
2018-11-21T05:26:44.349Z,1002.38
2018-11-21T05:27:59.432Z,1002.35
2018-11-21T05:29:13.948Z,1002.41
2018-11-21T05:30:28.383Z,1002.43
2018-11-21T05:31:42.820Z,1002.42
2018-11-21T05:32:56.504Z,1002.44
2018-11-21T05:34:11.319Z,1002.47
2018-11-21T05:35:25.261Z,1002.53
2018-11-21T05:36:39.721Z,1002.59
2018-11-21T05:37:53.930Z,1002.66
2018-11-21T05:39:08.446Z,1002.7
2018-11-21T05:40:22.636Z,1002.74
2018-11-21T05:41:37.134Z,1002.75
2018-11-21T05:42:51.887Z,1002.69
2018-11-21T05:44:06.580Z,1002.71
2018-11-21T05:45:21.061Z,1002.67
2018-11-21T05:46:35.789Z,1002.65
2018-11-21T05:47:49.701Z,1002.67
2018-11-21T05:49:04.464Z,1002.69
2018-11-21T05:50:18.631Z,1002.68
2018-11-21T05:51:32.993Z,1002.71
2018-11-21T05:52:46.901Z,1002.64
2018-11-21T05:54:01.341Z,1002.65
2018-11-21T05:55:17.632Z,1002.6
2018-11-21T05:56:32.068Z,1002.59
2018-11-21T05:57:46.263Z,1002.48
2018-11-21T05:59:00.459Z,1002.48
2018-11-21T06:00:15.801Z,1002.55
2018-11-21T06:01:30.109Z,1002.51
2018-11-21T06:02:44.817Z,1002.5
2018-11-21T06:03:59.215Z,1002.48
2018-11-21T06:05:13.956Z,1002.55
2018-11-21T06:06:27.635Z,1002.5
2018-11-21T06:07:42.772Z,1002.49
2018-11-21T06:08:57.681Z,1002.53
2018-11-21T06:10:12.103Z,1002.5
2018-11-21T06:11:26.032Z,1002.41
2018-11-21T06:12:40.234Z,1002.46
2018-11-21T06:13:54.475Z,1002.51
2018-11-21T06:15:08.378Z,1002.52
2018-11-21T06:16:23.274Z,1002.63
2018-11-21T06:17:37.697Z,1002.7
2018-11-21T06:18:57.312Z,1002.77
2018-11-21T06:20:11.891Z,1002.84
2018-11-21T06:21:42.527Z,1002.91
2018-11-21T06:22:56.366Z,1002.8
2018-11-21T06:24:27.439Z,1002.86
2018-11-21T06:25:42.577Z,1002.89
2018-11-21T06:26:56.275Z,1002.92
2018-11-21T06:28:11.753Z,1002.9
2018-11-21T06:29:26.746Z,1002.94
2018-11-21T06:30:40.169Z,1002.96
2018-11-21T06:31:55.119Z,1002.99
2018-11-21T06:33:18.011Z,1002.96
2018-11-21T06:34:32.816Z,1002.97
2018-11-21T06:35:46.208Z,1003.01
2018-11-21T06:37:00.958Z,1003
2018-11-21T06:38:16.232Z,1003.01
2018-11-21T06:39:30.746Z,1003.06
2018-11-21T06:40:45.177Z,1003.08
2018-11-21T06:41:59.914Z,1003.13
2018-11-21T06:43:14.672Z,1003.19
2018-11-21T06:44:29.736Z,1003.2
2018-11-21T06:45:44.223Z,1003.25
2018-11-21T06:46:58.409Z,1003.25
2018-11-21T06:48:12.363Z,1003.24
2018-11-21T06:51:40.056Z,1003.31
2018-11-21T06:54:22.834Z,1003.48
2018-11-21T06:55:37.262Z,1003.44
2018-11-21T06:57:36.053Z,1003.46
2018-11-21T06:58:55.074Z,1003.52
2018-11-21T07:00:10.274Z,1003.59
2018-11-21T07:01:24.983Z,1003.61
2018-11-21T07:02:39.840Z,1003.65
2018-11-21T07:09:33.594Z,1003.69
2018-11-21T07:10:47.710Z,1003.71
2018-11-21T07:12:02.730Z,1003.8
2018-11-21T07:13:17.411Z,1003.77
2018-11-21T07:15:15.687Z,1003.82
2018-11-21T07:16:30.241Z,1003.84
2018-11-21T07:17:45.266Z,1003.85
2018-11-21T07:20:58.800Z,1003.86
2018-11-21T07:22:13.834Z,1003.87
2018-11-21T07:23:28.297Z,1003.85
2018-11-21T07:24:43.864Z,1003.85
2018-11-21T07:25:58.679Z,1003.88
2018-11-21T07:27:13.002Z,1003.96
2018-11-21T07:28:27.075Z,1003.9
2018-11-21T07:29:41.277Z,1003.89
2018-11-21T07:30:55.756Z,1003.94
2018-11-21T07:32:10.505Z,1003.91
2018-11-21T07:33:23.934Z,1004.01
2018-11-21T07:34:38.246Z,1004.01
2018-11-21T07:35:52.869Z,1004.01
2018-11-21T07:37:07.725Z,1004.05
2018-11-21T07:38:22.611Z,1004.01
2018-11-21T07:39:36.559Z,1004.02
2018-11-21T07:40:51.475Z,1004.01
2018-11-21T07:42:06.794Z,1003.97
2018-11-21T07:43:36.048Z,1004.06
2018-11-21T07:44:50.658Z,1004.01
2018-11-21T07:46:05.450Z,1004.08
2018-11-21T07:47:19.950Z,1004.03
2018-11-21T07:48:38.938Z,1004.05
2018-11-21T07:50:07.827Z,1004
2018-11-21T07:51:22.599Z,1004.04
2018-11-21T07:52:37.573Z,1004.11
2018-11-21T07:53:51.776Z,1004.07
2018-11-21T07:55:05.964Z,1004.01
2018-11-21T07:56:20.685Z,1004
2018-11-21T07:57:35.403Z,1004.03
2018-11-21T07:58:49.852Z,1004.05
2018-11-21T08:00:04.043Z,1004.07
2018-11-21T08:01:19.000Z,1004.13
2018-11-21T08:02:33.819Z,1004.18
2018-11-21T08:03:48.415Z,1004.17
2018-11-21T08:05:03.085Z,1004.18
2018-11-21T08:06:17.514Z,1004.25
2018-11-21T08:07:31.518Z,1004.24
2018-11-21T08:08:46.232Z,1004.32
2018-11-21T08:10:01.258Z,1004.28
2018-11-21T08:11:16.676Z,1004.28
2018-11-21T08:12:31.110Z,1004.26
2018-11-21T08:13:44.790Z,1004.21
2018-11-21T08:14:58.749Z,1004.2
2018-11-21T08:16:20.035Z,1004.22
2018-11-21T08:17:34.916Z,1004.28
2018-11-21T08:18:49.581Z,1004.26
2018-11-21T08:20:03.863Z,1004.25
2018-11-21T08:21:18.086Z,1004.22
2018-11-21T08:22:33.139Z,1004.28
2018-11-21T08:23:47.615Z,1004.24
2018-11-21T08:25:02.134Z,1004.27
2018-11-21T08:26:17.157Z,1004.32
2018-11-21T08:27:32.016Z,1004.36
2018-11-21T08:28:46.222Z,1004.37
2018-11-21T08:30:00.931Z,1004.4
2018-11-21T08:31:14.425Z,1004.35
2018-11-21T08:34:27.633Z,1004.33
2018-11-21T08:35:42.695Z,1004.29
2018-11-21T08:36:57.356Z,1004.38
2018-11-21T08:38:12.061Z,1004.38
2018-11-21T08:41:39.821Z,1004.53
2018-11-21T08:43:11.518Z,1004.52
2018-11-21T08:44:27.356Z,1004.59
2018-11-21T08:47:55.369Z,1004.58
2018-11-21T08:49:09.713Z,1004.48
2018-11-21T08:50:24.944Z,1004.5
2018-11-21T08:52:03.935Z,1004.52
2018-11-21T08:53:18.284Z,1004.53
2018-11-21T08:54:32.443Z,1004.5
2018-11-21T08:55:45.921Z,1004.5
2018-11-21T08:57:00.638Z,1004.5
2018-11-21T08:58:29.909Z,1004.5
2018-11-21T08:59:44.457Z,1004.48
2018-11-21T09:00:58.680Z,1004.49
2018-11-21T09:02:57.523Z,1004.48
2018-11-21T09:04:11.602Z,1004.52
2018-11-21T09:05:25.874Z,1004.51
2018-11-21T09:06:39.900Z,1004.51
2018-11-21T09:08:38.459Z,1004.48
2018-11-21T09:09:53.057Z,1004.44
2018-11-21T09:11:07.549Z,1004.49
2018-11-21T09:12:22.521Z,1004.57
2018-11-21T09:13:36.546Z,1004.52
2018-11-21T09:14:51.672Z,1004.47
2018-11-21T09:16:05.919Z,1004.55
2018-11-21T09:17:21.010Z,1004.51
2018-11-21T09:20:48.514Z,1004.55
2018-11-21T09:22:02.575Z,1004.6
2018-11-21T09:23:16.790Z,1004.69
2018-11-21T09:24:31.044Z,1004.65
2018-11-21T09:25:45.922Z,1004.61
2018-11-21T09:27:00.595Z,1004.61
2018-11-21T09:28:15.815Z,1004.55
2018-11-21T09:29:30.594Z,1004.59
2018-11-21T09:30:46.264Z,1004.61
2018-11-21T09:32:00.776Z,1004.57
2018-11-21T09:33:15.463Z,1004.53
2018-11-21T09:34:30.519Z,1004.62
2018-11-21T09:35:44.995Z,1004.6
2018-11-21T09:36:59.795Z,1004.63
2018-11-21T09:38:14.506Z,1004.68
2018-11-21T09:39:29.626Z,1004.63
2018-11-21T09:40:44.124Z,1004.67
2018-11-21T09:41:59.937Z,1004.56
2018-11-21T09:43:33.143Z,1004.63
2018-11-21T09:44:48.470Z,1004.52
2018-11-21T09:46:04.190Z,1004.6
2018-11-21T09:47:18.190Z,1004.53
2018-11-21T09:48:32.941Z,1004.56
2018-11-21T09:49:48.531Z,1004.52
2018-11-21T09:51:04.675Z,1004.54
2018-11-21T09:52:34.724Z,1004.59
2018-11-21T09:53:51.147Z,1004.51
2018-11-21T09:55:21.116Z,1004.5
2018-11-21T09:56:35.292Z,1004.53
2018-11-21T09:57:50.073Z,1004.61
2018-11-21T09:59:04.989Z,1004.57
2018-11-21T10:00:19.787Z,1004.54
2018-11-21T10:01:34.109Z,1004.52
2018-11-21T10:02:52.212Z,1004.54
2018-11-21T10:04:14.909Z,1004.68
2018-11-21T10:05:30.350Z,1004.78
2018-11-21T10:06:44.884Z,1004.77
2018-11-21T10:08:00.938Z,1004.8
2018-11-21T10:09:15.838Z,1004.76
2018-11-21T10:10:31.223Z,1004.85
2018-11-21T10:11:46.019Z,1004.84
2018-11-21T10:13:00.784Z,1004.89
2018-11-21T10:14:16.688Z,1004.88
2018-11-21T10:15:31.058Z,1004.89
2018-11-21T10:16:45.510Z,1004.91
2018-11-21T10:18:00.044Z,1004.9
2018-11-21T10:19:14.828Z,1004.92
2018-11-21T10:20:29.630Z,1004.86
2018-11-21T10:21:44.377Z,1004.85
2018-11-21T10:22:58.326Z,1004.89
2018-11-21T10:24:13.465Z,1004.86
2018-11-21T10:25:28.207Z,1004.87
2018-11-21T10:26:42.728Z,1004.89
2018-11-21T10:27:57.038Z,1004.93
2018-11-21T10:29:11.430Z,1004.89
2018-11-21T10:30:26.748Z,1004.89
2018-11-21T10:37:06.997Z,1004.98
2018-11-21T10:38:21.771Z,1004.96
2018-11-21T10:39:36.500Z,1005.03
2018-11-21T10:41:00.000Z,1005.02
2018-11-21T10:42:15.185Z,1005.11
2018-11-21T10:43:29.714Z,1005.07
2018-11-21T10:44:44.656Z,1005.11
2018-11-21T10:46:00.225Z,1005.08
2018-11-21T10:47:14.815Z,1004.91
2018-11-21T10:48:30.361Z,1004.95
2018-11-21T10:49:44.639Z,1004.96
2018-11-21T10:50:59.165Z,1005.04
2018-11-21T10:52:15.544Z,1004.99
2018-11-21T10:53:35.017Z,1005.07
2018-11-21T10:54:49.948Z,1005.09
2018-11-21T10:56:04.543Z,1005.07
2018-11-21T10:57:19.019Z,1004.96
2018-11-21T10:58:33.727Z,1005.05
2018-11-21T10:59:47.938Z,1005.02
2018-11-21T11:01:02.969Z,1005.04
2018-11-21T11:02:17.946Z,1005.03
2018-11-21T11:03:32.464Z,1005.05
2018-11-21T11:04:46.401Z,1005.03
2018-11-21T11:06:00.687Z,1004.98
2018-11-21T11:07:15.928Z,1005.14
2018-11-21T11:08:30.880Z,1005.12
2018-11-21T11:09:46.513Z,1005.03
2018-11-21T11:11:01.998Z,1005.13
2018-11-21T11:12:16.982Z,1005.09
2018-11-21T11:13:35.313Z,1005.22
2018-11-21T11:14:49.762Z,1005.13
2018-11-21T11:16:04.076Z,1005.1
2018-11-21T11:17:18.979Z,1005.05
2018-11-21T11:18:32.918Z,1005.08
2018-11-21T11:19:47.982Z,1005.07
2018-11-21T11:21:04.798Z,1005.04
2018-11-21T11:22:21.107Z,1005.05
2018-11-21T11:23:36.739Z,1005.04
2018-11-21T11:24:51.128Z,1005.1
2018-11-21T11:26:06.298Z,1005.01
2018-11-21T11:27:20.781Z,1004.99
2018-11-21T11:28:36.737Z,1005.03
2018-11-21T11:29:51.225Z,1004.99
2018-11-21T11:31:05.461Z,1004.93
2018-11-21T11:32:20.252Z,1004.99
2018-11-21T11:33:34.727Z,1005.04
2018-11-21T11:34:51.454Z,1004.92
2018-11-21T11:36:06.516Z,1005.01
2018-11-21T11:37:20.992Z,1004.95
2018-11-21T11:38:35.002Z,1004.93
2018-11-21T11:39:49.768Z,1004.98
2018-11-21T11:41:04.529Z,1004.95
2018-11-21T11:42:19.375Z,1004.95
2018-11-21T11:43:33.611Z,1004.86
2018-11-21T11:44:48.708Z,1004.94
2018-11-21T11:46:02.973Z,1005.01
2018-11-21T11:47:17.798Z,1005.07
2018-11-21T11:48:32.506Z,1004.97
2018-11-21T11:49:46.752Z,1004.98
2018-11-21T11:51:16.461Z,1005.05
2018-11-21T11:52:31.292Z,1004.96
2018-11-21T11:53:45.881Z,1004.94
2018-11-21T11:55:00.457Z,1004.98
2018-11-21T11:56:15.491Z,1004.92
2018-11-21T11:57:30.368Z,1004.88
2018-11-21T11:58:44.942Z,1004.84
2018-11-21T12:00:18.946Z,1004.87
2018-11-21T12:01:34.362Z,1004.78
2018-11-21T12:02:49.898Z,1004.9
2018-11-21T12:04:06.017Z,1004.85
2018-11-21T12:05:20.691Z,1004.89
2018-11-21T12:08:05.187Z,1004.86
2018-11-21T12:09:20.010Z,1004.89
2018-11-21T12:10:35.298Z,1004.81
2018-11-21T12:11:50.643Z,1004.83
2018-11-21T12:13:10.079Z,1004.74
2018-11-21T12:14:24.669Z,1004.74
2018-11-21T12:15:40.539Z,1004.8
2018-11-21T12:16:55.580Z,1004.8
2018-11-21T12:18:24.938Z,1004.78
2018-11-21T12:20:19.048Z,1004.79
2018-11-21T12:21:50.022Z,1004.87
2018-11-21T12:23:04.562Z,1004.78
2018-11-21T12:24:19.733Z,1004.78
2018-11-21T12:25:36.636Z,1004.76
2018-11-21T12:26:52.071Z,1004.78
2018-11-21T12:28:07.431Z,1004.78
2018-11-21T12:29:22.850Z,1004.8
